ΕΜΥ, Εθνική Μετεωρολογική Υπηρεσία - Δελτία Καιρού, Προγνώσεις

ΑΕΡΟΝΑΥΤΙΛΙΑ

GREEK AIRPORTS CODES

LGAV 301350Z 09005KT 9999 FEW030 17/08 Q1010 RMK NOSIG=

EUROPEAN AIRPORTS CODES

LFPO 301400Z AUTO 04020KT CAVOK 09/M10 Q1026 TEMPO 04018G30KT=